This is the latest recevied weather packets stored in our database for station/object VK3BKO-13. If no packets are shown the sender has not sent any weather packets the latest 10 day(s).
| Time | Temp. | Humidity | Pressure | Rain* | Wind** | Luminosity | Snow |
|---|---|---|---|---|---|---|---|
| 1777742224 | 20° C | 65% | 1011.9 hPa | 0 mm | - | 0 W/m² | - |
| 1777741324 | 18.89° C | 69% | 1011.9 hPa | 0 mm | - | 0 W/m² | - |
| 1777740424 | 17.78° C | 79% | 1011.9 hPa | 0 mm | - | 0 W/m² | - |
| 1777739524 | 17.22° C | 78% | 1012.2 hPa | 0 mm | - | 0 W/m² | - |
| 1777738624 | 17.78° C | 77% | 1012.2 hPa | 0 mm | - | 0 W/m² | - |
| 1777737723 | 17.78° C | 77% | 1012.6 hPa | 0 mm | - | 0 W/m² | - |
| 1777736824 | 17.78° C | 77% | 1012.6 hPa | 0 mm | - | 0 W/m² | - |
| 1777735924 | 18.33° C | 76% | 1012.6 hPa | 0 mm | - | 0 W/m² | - |
| 1777735024 | 18.89° C | 73% | 1012.6 hPa | 0 mm | - | 0 W/m² | - |
| 1777734124 | 18.89° C | 73% | 1012.6 hPa | 0 mm | - | 0 W/m² | - |
| 1777733224 | 18.89° C | 69% | 1012.9 hPa | 0 mm | - | 0 W/m² | - |
| 1777732324 | 17.78° C | 78% | 1013.2 hPa | 0 mm | - | 0 W/m² | - |
| 1777731424 | 18.33° C | 78% | 1013.2 hPa | 0 mm | - | 0 W/m² | - |
| 1777730523 | 19.44° C | 72% | 1013.2 hPa | 0 mm | - | 0 W/m² | - |
| 1777729623 | 20.56° C | 64% | 1013.6 hPa | 0 mm | - | 0 W/m² | - |
| 1777728724 | 21.11° C | 55% | 1013.6 hPa | 0 mm | - | 0 W/m² | - |
| 1777727824 | 21.67° C | 54% | 1013.6 hPa | 0 mm | - | 0 W/m² | - |
| 1777726924 | 21.67° C | 53% | 1013.6 hPa | 0 mm | - | 0 W/m² | - |
| 1777726024 | 21.11° C | 54% | 1013.9 hPa | 0 mm | - | 0 W/m² | - |
| 1777725124 | 22.22° C | 52% | 1013.9 hPa | 0 mm | - | 0 W/m² | - |
| 1777724224 | 22.22° C | 51% | 1013.6 hPa | 0 mm | - | 0 W/m² | - |
| 1777723324 | 22.22° C | 51% | 1013.9 hPa | 0 mm | - | 0 W/m² | - |
| 1777722424 | 22.22° C | 51% | 1013.9 hPa | 0 mm | - | 0 W/m² | - |
| 1777721524 | 22.22° C | 51% | 1014.3 hPa | 0 mm | - | 0 W/m² | - |
| 1777720623 | 22.22° C | 52% | 1014.3 hPa | 0 mm | - | 0 W/m² | - |
* Rain latest hour (hover to see other rain measurements)
** Current wind speed in m/s (hover to see current wind gust speed)